createdAt,value
2023-04-02T00:01:23.129Z,1.91
2023-04-02T00:06:32.356Z,1.84
2023-04-02T00:11:37.000Z,1.76
2023-04-02T00:16:40.221Z,1.70
2023-04-02T00:21:44.226Z,1.66
2023-04-02T00:26:50.122Z,1.63
2023-04-02T00:31:53.465Z,1.61
2023-04-02T00:36:56.116Z,1.62
2023-04-02T00:42:05.614Z,1.66
2023-04-02T00:47:22.188Z,1.69
2023-04-02T00:52:35.227Z,1.71
2023-04-02T00:57:41.316Z,1.74
2023-04-02T01:02:43.446Z,1.76
2023-04-02T01:08:18.239Z,1.79
2023-04-02T01:13:46.629Z,1.82
2023-04-02T01:19:01.319Z,1.87
2023-04-02T01:24:07.012Z,1.90
2023-04-02T01:29:16.136Z,1.94
2023-04-02T01:34:21.955Z,1.99
2023-04-02T01:39:54.283Z,2.01
2023-04-02T01:45:15.133Z,2.05
2023-04-02T01:50:21.800Z,2.10
2023-04-02T01:55:38.518Z,2.13
2023-04-02T02:00:55.988Z,2.16
2023-04-02T02:05:59.606Z,2.19
2023-04-02T02:11:02.381Z,2.22
2023-04-02T02:16:06.968Z,2.26
2023-04-02T02:21:10.227Z,2.30
2023-04-02T02:26:13.131Z,2.32
2023-04-02T02:31:27.720Z,2.32
2023-04-02T02:36:56.111Z,2.33
2023-04-02T02:42:08.424Z,2.34
2023-04-02T02:47:19.109Z,2.36
2023-04-02T02:52:44.939Z,2.38
2023-04-02T02:57:52.861Z,2.37
2023-04-02T03:02:56.807Z,2.34
2023-04-02T03:08:02.859Z,2.32
2023-04-02T03:13:26.649Z,2.30
2023-04-02T03:18:34.056Z,2.29
2023-04-02T03:23:42.369Z,2.27
2023-04-02T03:28:59.643Z,2.25
2023-04-02T03:34:11.338Z,2.23
2023-04-02T03:39:26.838Z,2.22
2023-04-02T03:44:37.823Z,2.18
2023-04-02T03:49:49.326Z,2.14
2023-04-02T03:54:53.831Z,2.08
2023-04-02T04:00:20.724Z,2.00
2023-04-02T04:05:31.507Z,1.92
2023-04-02T04:10:35.866Z,1.82
2023-04-02T04:15:52.362Z,1.73
2023-04-02T04:20:59.570Z,1.68
2023-04-02T04:26:09.223Z,1.65
2023-04-02T04:31:23.927Z,1.67
2023-04-02T04:36:33.266Z,1.70
2023-04-02T04:41:38.650Z,1.76
2023-04-02T04:47:03.535Z,1.82
2023-04-02T04:52:23.632Z,1.89
2023-04-02T04:57:31.963Z,1.95
2023-04-02T05:02:51.123Z,2.00
2023-04-02T05:07:59.850Z,2.05
2023-04-02T05:13:10.869Z,2.10
2023-04-02T05:18:18.940Z,2.13
2023-04-02T05:23:34.438Z,2.18
2023-04-02T05:28:52.754Z,2.22
2023-04-02T05:33:56.063Z,2.27
2023-04-02T05:38:59.165Z,2.33
2023-04-02T05:44:16.316Z,2.41
2023-04-02T05:49:27.640Z,2.48
2023-04-02T05:54:46.990Z,2.50
2023-04-02T05:59:56.242Z,2.52
2023-04-02T06:05:01.805Z,2.56
2023-04-02T06:10:07.500Z,2.59
2023-04-02T06:15:21.227Z,2.60
2023-04-02T06:20:23.000Z,2.57
2023-04-02T06:25:33.342Z,2.59
2023-04-02T06:30:40.274Z,2.62
2023-04-02T06:35:46.149Z,2.66
2023-04-02T06:41:14.345Z,2.68
2023-04-02T06:46:40.100Z,2.70
2023-04-02T06:51:45.601Z,2.75
2023-04-02T06:56:53.189Z,2.80
2023-04-02T07:02:03.630Z,2.82
2023-04-02T07:07:06.226Z,2.82
2023-04-02T07:12:14.342Z,2.85
2023-04-02T07:17:20.403Z,2.90
2023-04-02T07:22:22.397Z,2.94
2023-04-02T07:27:24.312Z,2.97
2023-04-02T07:32:26.499Z,2.99
2023-04-02T07:37:28.517Z,3.00
2023-04-02T07:42:30.884Z,3.05
2023-04-02T07:47:32.785Z,3.08
2023-04-02T07:52:42.332Z,3.16
2023-04-02T07:57:54.131Z,3.22
2023-04-02T08:02:55.968Z,3.29
2023-04-02T08:07:57.987Z,3.38
2023-04-02T08:12:59.967Z,3.51
2023-04-02T08:18:01.976Z,3.57
2023-04-02T08:23:04.032Z,3.62
2023-04-02T08:28:06.113Z,3.62
2023-04-02T08:33:08.125Z,3.63
2023-04-02T08:38:15.500Z,3.64
2023-04-02T08:43:28.651Z,3.62
2023-04-02T08:48:33.379Z,3.58
2023-04-02T08:53:39.254Z,3.56
2023-04-02T08:58:43.389Z,3.58
2023-04-02T09:03:47.333Z,3.58
2023-04-02T09:08:51.746Z,3.58
2023-04-02T09:13:58.634Z,3.61
2023-04-02T09:19:01.850Z,3.62
2023-04-02T09:24:05.246Z,3.69
2023-04-02T09:29:14.106Z,3.73
2023-04-02T09:34:33.920Z,3.79
2023-04-02T09:39:35.878Z,3.87
2023-04-02T09:44:38.684Z,3.91
2023-04-02T09:49:41.495Z,3.97
2023-04-02T09:54:44.584Z,4.10
2023-04-02T09:59:46.868Z,4.21
2023-04-02T10:04:51.725Z,4.28
2023-04-02T10:09:58.809Z,4.37
2023-04-02T10:15:03.885Z,4.49
2023-04-02T10:20:29.306Z,4.61
2023-04-02T10:25:44.009Z,4.83
2023-04-02T10:31:01.792Z,5.17
2023-04-02T10:36:40.327Z,5.40
2023-04-02T10:42:01.382Z,5.56
2023-04-02T10:47:12.680Z,5.71
2023-04-02T10:52:39.643Z,5.80
2023-04-02T10:57:44.406Z,5.97
2023-04-02T11:03:05.789Z,6.20
2023-04-02T11:08:11.018Z,6.41
2023-04-02T11:13:30.376Z,6.53
2023-04-02T11:18:37.988Z,6.68
2023-04-02T11:23:56.563Z,6.78
2023-04-02T11:29:14.105Z,6.91
2023-04-02T11:34:41.061Z,7.05
2023-04-02T11:39:53.845Z,7.16
2023-04-02T11:45:01.097Z,7.20
2023-04-02T11:50:06.678Z,7.09
2023-04-02T11:55:17.543Z,7.02
2023-04-02T12:00:58.736Z,7.09
2023-04-02T12:06:18.365Z,7.19
2023-04-02T12:11:33.206Z,7.45
2023-04-02T12:16:35.495Z,7.75
2023-04-02T12:21:37.581Z,8.03
2023-04-02T12:26:42.216Z,8.08
2023-04-02T12:31:46.345Z,7.84
2023-04-02T12:37:02.856Z,7.69
2023-04-02T12:42:05.274Z,7.86
2023-04-02T12:47:08.333Z,8.07
2023-04-02T12:52:14.468Z,8.09
2023-04-02T12:57:20.861Z,8.08
2023-04-02T13:02:29.809Z,8.27
2023-04-02T13:07:33.698Z,8.34
2023-04-02T13:12:39.042Z,8.38
2023-04-02T13:17:49.933Z,8.21
2023-04-02T13:22:51.912Z,7.97
2023-04-02T13:27:54.312Z,7.77
2023-04-02T13:32:57.137Z,7.60
2023-04-02T13:38:02.399Z,7.51
2023-04-02T13:43:06.276Z,7.53
2023-04-02T13:48:15.523Z,7.55
2023-04-02T13:53:31.131Z,7.62
2023-04-02T13:58:33.007Z,7.77
2023-04-02T14:03:35.293Z,7.78
2023-04-02T14:09:03.820Z,7.82
2023-04-02T14:14:11.913Z,7.82
2023-04-02T14:19:46.152Z,7.66
2023-04-02T14:25:19.390Z,7.54
2023-04-02T14:30:51.080Z,7.50
2023-04-02T14:36:16.590Z,7.59
2023-04-02T14:41:45.796Z,7.70
2023-04-02T14:46:49.534Z,7.72
2023-04-02T14:52:01.549Z,7.63
2023-04-02T14:57:18.914Z,7.55
2023-04-02T15:02:44.550Z,7.53
2023-04-02T15:08:02.881Z,7.56
2023-04-02T15:13:14.766Z,7.56
2023-04-02T15:18:17.157Z,7.56
2023-04-02T15:23:31.123Z,7.63
2023-04-02T15:28:46.103Z,7.60
2023-04-02T15:34:20.520Z,7.49
2023-04-02T15:39:50.886Z,7.40
2023-04-02T15:45:09.448Z,7.32
2023-04-02T15:50:48.808Z,7.23
2023-04-02T15:56:16.386Z,7.09
2023-04-02T16:01:50.830Z,6.98
2023-04-02T16:07:17.690Z,6.88
2023-04-02T16:12:21.212Z,6.74
2023-04-02T16:17:28.002Z,6.61
2023-04-02T16:22:33.234Z,6.49
2023-04-02T16:27:42.722Z,6.37
2023-04-02T16:32:55.202Z,6.26
2023-04-02T16:38:15.749Z,6.16
2023-04-02T16:43:33.600Z,6.07
2023-04-02T16:48:44.186Z,5.97
2023-04-02T16:54:02.677Z,5.85
2023-04-02T16:59:29.863Z,5.69
2023-04-02T17:04:47.791Z,5.46
2023-04-02T17:09:53.337Z,5.24
2023-04-02T17:15:24.787Z,5.05
2023-04-02T17:20:30.987Z,4.86
2023-04-02T17:26:01.626Z,4.66
2023-04-02T17:31:14.063Z,4.49
2023-04-02T17:36:52.189Z,4.31
2023-04-02T17:42:02.616Z,4.12
2023-04-02T17:47:31.271Z,3.95
2023-04-02T17:52:53.622Z,3.82
2023-04-02T17:58:42.106Z,3.68
2023-04-02T18:03:59.658Z,3.58
2023-04-02T18:09:17.690Z,3.49
2023-04-02T18:14:48.962Z,3.40
2023-04-02T18:20:07.779Z,3.30
2023-04-02T18:25:25.568Z,3.25
2023-04-02T18:30:46.744Z,3.19
2023-04-02T18:36:10.278Z,3.12
2023-04-02T18:41:42.924Z,3.05
2023-04-02T18:46:57.527Z,2.96
2023-04-02T18:52:19.420Z,2.90
2023-04-02T18:57:35.798Z,2.85
2023-04-02T19:02:51.058Z,2.76
2023-04-02T19:08:02.439Z,2.71
2023-04-02T19:13:14.909Z,2.61
2023-04-02T19:18:49.589Z,2.51
2023-04-02T19:24:22.697Z,2.45
2023-04-02T19:29:31.131Z,2.36
2023-04-02T19:34:48.067Z,2.29
2023-04-02T19:39:57.227Z,2.24
2023-04-02T19:45:00.729Z,2.19
2023-04-02T19:50:04.802Z,2.13
2023-04-02T19:55:08.061Z,2.08
2023-04-02T20:00:14.550Z,1.99
2023-04-02T20:05:16.432Z,1.90
2023-04-02T20:10:21.911Z,1.82
2023-04-02T20:15:25.396Z,1.78
2023-04-02T20:20:27.993Z,1.72
2023-04-02T20:25:30.789Z,1.68
2023-04-02T20:30:33.205Z,1.65
2023-04-02T20:35:37.497Z,1.61
2023-04-02T20:40:43.250Z,1.54
2023-04-02T20:45:54.350Z,1.49
2023-04-02T20:50:58.036Z,1.42
2023-04-02T20:56:04.176Z,1.36
2023-04-02T21:01:11.709Z,1.33
2023-04-02T21:06:16.728Z,1.32
2023-04-02T21:11:21.527Z,1.31
2023-04-02T21:16:29.165Z,1.30
2023-04-02T21:21:31.909Z,1.25
2023-04-02T21:26:38.106Z,1.18
2023-04-02T21:31:42.250Z,1.11
2023-04-02T21:36:46.429Z,1.02
2023-04-02T21:41:50.772Z,0.94
2023-04-02T21:46:54.097Z,0.86
2023-04-02T21:51:56.360Z,0.82
2023-04-02T21:56:58.349Z,0.77
2023-04-02T22:02:00.485Z,0.70
2023-04-02T22:07:02.393Z,0.63
2023-04-02T22:12:07.355Z,0.54
2023-04-02T22:17:09.140Z,0.49
2023-04-02T22:22:10.892Z,0.46
2023-04-02T22:27:12.667Z,0.42
2023-04-02T22:32:14.438Z,0.42
2023-04-02T22:37:16.420Z,0.42
2023-04-02T22:42:18.191Z,0.41
2023-04-02T22:47:20.074Z,0.45
2023-04-02T22:52:21.989Z,0.44
2023-04-02T22:57:24.987Z,0.42
2023-04-02T23:02:27.176Z,0.37
2023-04-02T23:07:29.425Z,0.33
2023-04-02T23:12:31.707Z,0.30
2023-04-02T23:17:35.433Z,0.27
2023-04-02T23:22:37.918Z,0.22
2023-04-02T23:27:40.024Z,0.17
2023-04-02T23:32:41.794Z,0.14
2023-04-02T23:37:43.551Z,0.11
2023-04-02T23:42:45.326Z,0.05
2023-04-02T23:47:47.223Z,0.02
2023-04-02T23:52:49.190Z,0.04
2023-04-02T23:57:51.411Z,0.04
